createdAt,value
2019-03-24T00:01:57.086Z,3.80
2019-03-24T00:04:25.571Z,3.70
2019-03-24T00:06:54.003Z,3.70
2019-03-24T00:09:22.523Z,3.70
2019-03-24T00:11:51.075Z,3.60
2019-03-24T00:14:21.223Z,3.60
2019-03-24T00:16:49.662Z,3.50
2019-03-24T00:19:18.157Z,3.50
2019-03-24T00:21:46.651Z,3.50
2019-03-24T00:24:15.454Z,3.40
2019-03-24T00:26:44.129Z,3.40
2019-03-24T00:29:12.580Z,3.40
2019-03-24T00:31:41.087Z,3.30
2019-03-24T00:34:09.565Z,3.20
2019-03-24T00:36:38.152Z,3.20
2019-03-24T00:39:07.089Z,3.10
2019-03-24T00:41:35.718Z,3.10
2019-03-24T00:44:04.274Z,3.10
2019-03-24T00:46:32.753Z,3.10
2019-03-24T00:49:01.258Z,3.10
2019-03-24T00:51:32.091Z,3.00
2019-03-24T00:54:00.547Z,3.00
2019-03-24T00:56:29.160Z,2.90
2019-03-24T00:58:57.630Z,2.90
2019-03-24T01:01:26.187Z,2.90
2019-03-24T01:03:54.664Z,2.90
2019-03-24T01:06:24.948Z,2.90
2019-03-24T01:08:55.189Z,2.90
2019-03-24T01:11:23.599Z,2.90
2019-03-24T01:13:52.165Z,2.90
2019-03-24T01:16:20.588Z,2.90
2019-03-24T01:18:49.049Z,2.90
2019-03-24T01:21:17.495Z,2.90
2019-03-24T01:23:46.003Z,2.80
2019-03-24T01:26:14.497Z,2.80
2019-03-24T01:28:43.035Z,2.80
2019-03-24T01:31:12.579Z,2.90
2019-03-24T01:33:41.063Z,2.90
2019-03-24T01:36:11.777Z,2.90
2019-03-24T01:38:40.360Z,2.80
2019-03-24T01:41:08.949Z,2.80
2019-03-24T01:43:37.407Z,2.70
2019-03-24T01:46:05.843Z,2.80
2019-03-24T01:48:34.339Z,2.80
2019-03-24T01:51:02.768Z,2.70
2019-03-24T01:53:31.439Z,2.70
2019-03-24T01:55:59.886Z,2.70
2019-03-24T01:58:28.467Z,2.70
2019-03-24T02:00:56.892Z,2.70
2019-03-24T02:03:25.455Z,2.70
2019-03-24T02:05:53.935Z,2.60
2019-03-24T02:08:22.382Z,2.60
2019-03-24T02:10:50.820Z,2.60
2019-03-24T02:13:19.269Z,2.60
2019-03-24T02:15:47.676Z,2.60
2019-03-24T02:18:16.098Z,2.60
2019-03-24T02:20:44.581Z,2.60
2019-03-24T02:23:14.033Z,2.60
2019-03-24T02:25:42.556Z,2.60
2019-03-24T02:28:11.066Z,2.60
2019-03-24T02:30:39.615Z,2.60
2019-03-24T02:33:08.125Z,2.60
2019-03-24T02:35:36.683Z,2.60
2019-03-24T02:38:05.157Z,2.60
2019-03-24T02:40:33.766Z,2.60
2019-03-24T02:43:02.248Z,2.60
2019-03-24T02:45:30.805Z,2.70
2019-03-24T02:47:59.305Z,2.60
2019-03-24T02:50:27.760Z,2.60
2019-03-24T02:52:56.182Z,2.60
2019-03-24T02:55:24.745Z,2.50
2019-03-24T02:57:53.355Z,2.50
2019-03-24T03:00:21.906Z,2.60
2019-03-24T03:02:50.358Z,2.60
2019-03-24T03:05:18.953Z,2.60
2019-03-24T03:07:47.368Z,2.50
2019-03-24T03:10:15.996Z,2.50
2019-03-24T03:12:47.558Z,2.50
2019-03-24T03:15:14.695Z,2.50
2019-03-24T03:17:43.205Z,2.40
2019-03-24T03:20:11.755Z,2.40
2019-03-24T03:22:40.263Z,2.40
2019-03-24T03:25:09.303Z,2.30
2019-03-24T03:27:37.838Z,2.30
2019-03-24T03:30:09.522Z,2.40
2019-03-24T03:32:38.088Z,2.30
2019-03-24T03:35:07.281Z,2.40
2019-03-24T03:37:35.709Z,2.40
2019-03-24T03:40:06.377Z,2.30
2019-03-24T03:42:34.862Z,2.20
2019-03-24T03:45:03.629Z,2.20
2019-03-24T03:47:32.128Z,2.20
2019-03-24T03:50:00.655Z,2.10
2019-03-24T03:52:30.252Z,2.20
2019-03-24T03:54:58.696Z,2.10
2019-03-24T03:57:27.186Z,2.10
2019-03-24T03:59:55.743Z,2.10
2019-03-24T04:02:24.192Z,2.00
2019-03-24T04:04:52.675Z,2.00
2019-03-24T04:07:21.181Z,2.00
2019-03-24T04:09:51.353Z,2.00
2019-03-24T04:12:19.741Z,2.00
2019-03-24T04:14:48.223Z,1.90
2019-03-24T04:17:16.691Z,1.90
2019-03-24T04:19:45.215Z,1.90
2019-03-24T04:22:13.692Z,1.90
2019-03-24T04:24:42.174Z,1.90
2019-03-24T04:27:10.759Z,1.90
2019-03-24T04:29:39.231Z,1.90
2019-03-24T04:32:07.780Z,1.90
2019-03-24T04:34:36.214Z,1.90
2019-03-24T04:37:04.772Z,1.90
2019-03-24T04:39:34.223Z,1.90
2019-03-24T04:42:02.719Z,1.80
2019-03-24T04:44:32.672Z,1.80
2019-03-24T04:47:01.222Z,1.90
2019-03-24T04:49:31.040Z,1.90
2019-03-24T04:51:59.541Z,1.90
2019-03-24T04:54:28.013Z,2.00
2019-03-24T04:56:56.568Z,1.90
2019-03-24T04:59:25.084Z,2.00
2019-03-24T05:01:53.631Z,2.00
2019-03-24T05:04:22.236Z,2.00
2019-03-24T05:06:50.687Z,2.10
2019-03-24T05:09:19.179Z,2.10
2019-03-24T05:11:47.644Z,2.20
2019-03-24T05:14:16.252Z,2.20
2019-03-24T05:16:44.733Z,2.30
2019-03-24T05:19:13.213Z,2.20
2019-03-24T05:21:41.795Z,2.30
2019-03-24T05:24:10.343Z,2.40
2019-03-24T05:26:38.855Z,2.40
2019-03-24T05:29:07.332Z,2.40
2019-03-24T05:31:37.518Z,2.50
2019-03-24T05:34:06.033Z,2.60
2019-03-24T05:36:34.510Z,2.70
2019-03-24T05:39:04.030Z,2.70
2019-03-24T05:41:32.462Z,2.80
2019-03-24T05:44:01.074Z,2.80
2019-03-24T05:46:29.467Z,2.90
2019-03-24T05:48:58.103Z,3.00
2019-03-24T05:51:26.715Z,3.00
2019-03-24T05:53:55.164Z,3.10
2019-03-24T05:56:25.399Z,3.20
2019-03-24T05:58:53.863Z,3.30
2019-03-24T06:01:22.377Z,3.40
2019-03-24T06:03:51.057Z,3.40
2019-03-24T06:06:19.535Z,3.50
2019-03-24T06:08:48.028Z,3.50
2019-03-24T06:11:16.418Z,3.60
2019-03-24T06:13:44.939Z,3.60
2019-03-24T06:16:13.420Z,3.60
2019-03-24T06:18:41.903Z,3.70
2019-03-24T06:21:11.381Z,3.80
2019-03-24T06:23:39.883Z,3.80
2019-03-24T06:26:08.459Z,3.90
2019-03-24T06:28:36.958Z,4.00
2019-03-24T06:31:05.454Z,4.10
2019-03-24T06:33:34.029Z,4.20
2019-03-24T06:36:02.612Z,4.30
2019-03-24T06:38:31.090Z,4.30
2019-03-24T06:40:59.575Z,4.40
2019-03-24T06:43:28.019Z,4.50
2019-03-24T06:45:56.455Z,4.40
2019-03-24T06:48:24.891Z,4.50
2019-03-24T06:50:53.396Z,4.70
2019-03-24T06:53:21.881Z,4.70
2019-03-24T06:55:51.376Z,4.80
2019-03-24T06:58:19.821Z,4.90
2019-03-24T07:00:48.324Z,4.90
2019-03-24T07:03:16.908Z,4.90
2019-03-24T07:05:45.402Z,4.90
2019-03-24T07:08:13.936Z,4.90
2019-03-24T07:10:42.443Z,4.90
2019-03-24T07:13:10.925Z,5.00
2019-03-24T07:15:39.337Z,5.10
2019-03-24T07:18:09.797Z,5.10
2019-03-24T07:20:39.311Z,5.20
2019-03-24T07:23:07.808Z,5.20
2019-03-24T07:25:36.326Z,5.20
2019-03-24T07:28:04.839Z,5.30
2019-03-24T07:30:34.343Z,5.20
2019-03-24T07:33:02.819Z,5.20
2019-03-24T07:35:31.329Z,5.30
2019-03-24T07:37:59.911Z,5.30
2019-03-24T07:40:28.366Z,5.40
2019-03-24T07:42:56.793Z,5.50
2019-03-24T07:45:25.253Z,5.50
2019-03-24T07:47:53.827Z,5.40
2019-03-24T07:50:22.338Z,5.50
2019-03-24T07:52:50.787Z,5.60
2019-03-24T07:55:19.263Z,5.60
2019-03-24T07:57:47.814Z,5.60
2019-03-24T08:00:19.504Z,5.60
2019-03-24T08:02:51.868Z,5.60
2019-03-24T08:05:22.137Z,5.60
2019-03-24T08:07:50.492Z,5.70
2019-03-24T08:10:19.020Z,5.60
2019-03-24T08:12:47.556Z,5.60
2019-03-24T08:15:15.936Z,5.60
2019-03-24T08:17:44.482Z,5.60
2019-03-24T08:20:14.707Z,5.60
2019-03-24T08:22:43.084Z,5.80
2019-03-24T08:25:11.558Z,5.80
2019-03-24T08:27:41.053Z,5.80
2019-03-24T08:30:09.919Z,5.80
2019-03-24T08:32:38.428Z,5.80
2019-03-24T08:35:06.822Z,5.90
2019-03-24T08:37:35.244Z,6.00
2019-03-24T08:40:05.516Z,6.20
2019-03-24T08:42:34.084Z,6.30
2019-03-24T08:45:02.461Z,6.40
2019-03-24T08:47:31.044Z,6.30
2019-03-24T08:49:59.521Z,6.20
2019-03-24T08:52:28.075Z,6.10
2019-03-24T08:54:56.499Z,6.10
2019-03-24T08:57:24.981Z,6.20
2019-03-24T08:59:53.541Z,6.00
2019-03-24T09:02:22.018Z,6.20
2019-03-24T09:04:50.497Z,6.20
2019-03-24T09:07:18.947Z,6.10
2019-03-24T09:09:47.454Z,6.20
2019-03-24T09:12:16.003Z,6.30
2019-03-24T09:14:44.618Z,6.40
2019-03-24T09:17:13.035Z,6.30
2019-03-24T09:19:41.458Z,6.30
2019-03-24T09:22:09.882Z,6.40
2019-03-24T09:24:38.404Z,6.50
2019-03-24T09:27:06.884Z,6.50
2019-03-24T09:29:35.379Z,6.60
2019-03-24T09:32:03.874Z,6.80
2019-03-24T09:34:32.351Z,6.90
2019-03-24T09:37:02.664Z,7.00
2019-03-24T09:39:31.115Z,6.90
2019-03-24T09:42:00.819Z,6.90
2019-03-24T09:44:29.257Z,6.90
2019-03-24T09:46:57.816Z,6.90
2019-03-24T09:49:26.265Z,6.80
2019-03-24T09:51:54.754Z,7.00
2019-03-24T09:54:25.107Z,6.90
2019-03-24T09:56:53.572Z,7.00
2019-03-24T09:59:22.054Z,6.90
2019-03-24T10:01:50.443Z,6.90
2019-03-24T10:04:18.863Z,6.90
2019-03-24T10:06:47.386Z,6.70
2019-03-24T10:09:15.864Z,6.80
2019-03-24T10:11:44.445Z,6.90
2019-03-24T10:14:12.842Z,6.90
2019-03-24T10:16:41.375Z,7.10
2019-03-24T10:19:14.204Z,7.00
2019-03-24T10:21:40.000Z,7.30
2019-03-24T10:24:08.585Z,7.40
2019-03-24T10:26:37.054Z,7.40
2019-03-24T10:29:05.543Z,7.50
2019-03-24T10:31:33.971Z,7.60
2019-03-24T10:34:02.497Z,7.40
2019-03-24T10:36:30.949Z,7.30
2019-03-24T10:38:59.456Z,7.30
2019-03-24T10:41:27.934Z,7.30
2019-03-24T10:43:56.458Z,7.30
2019-03-24T10:46:24.915Z,7.30
2019-03-24T10:48:53.444Z,7.30
2019-03-24T10:51:21.924Z,7.30
2019-03-24T10:53:50.503Z,7.30
2019-03-24T10:56:19.014Z,7.40
2019-03-24T10:58:47.594Z,7.70
2019-03-24T11:01:16.078Z,7.90
2019-03-24T11:03:44.622Z,7.70
2019-03-24T11:06:13.113Z,7.50
2019-03-24T11:08:41.614Z,7.40
2019-03-24T11:11:10.194Z,7.50
2019-03-24T11:13:38.676Z,7.60
2019-03-24T11:16:07.151Z,7.60
2019-03-24T11:18:35.732Z,7.80
2019-03-24T11:21:04.197Z,7.80
2019-03-24T11:23:32.615Z,7.90
2019-03-24T11:26:03.123Z,8.00
2019-03-24T11:28:31.495Z,8.00
2019-03-24T11:31:00.043Z,8.00
2019-03-24T11:33:29.602Z,8.10
2019-03-24T11:35:58.365Z,8.10
2019-03-24T11:38:26.944Z,8.30
2019-03-24T11:40:55.721Z,8.20
2019-03-24T11:43:24.271Z,8.40
2019-03-24T11:45:52.907Z,8.30
2019-03-24T11:48:21.376Z,8.20
2019-03-24T11:50:49.955Z,8.30
2019-03-24T11:53:18.432Z,8.20
2019-03-24T11:55:46.986Z,8.10
2019-03-24T11:58:15.493Z,8.20
2019-03-24T12:00:44.073Z,8.30
2019-03-24T12:03:12.555Z,8.50
2019-03-24T12:05:41.103Z,8.50
2019-03-24T12:08:09.529Z,8.50
2019-03-24T12:10:38.096Z,8.50
2019-03-24T12:13:06.489Z,8.60
2019-03-24T12:15:35.047Z,8.70
2019-03-24T12:18:03.532Z,8.70
2019-03-24T12:20:34.396Z,8.80
2019-03-24T12:23:02.811Z,8.80
2019-03-24T12:25:31.299Z,8.70
2019-03-24T12:27:59.800Z,8.60
2019-03-24T12:30:28.186Z,8.60
2019-03-24T12:32:56.657Z,8.50
2019-03-24T12:35:25.136Z,8.40
2019-03-24T12:37:53.591Z,8.50
2019-03-24T12:40:22.067Z,8.60
2019-03-24T12:42:50.574Z,8.70
2019-03-24T12:45:19.055Z,8.60
2019-03-24T12:47:47.499Z,8.20
2019-03-24T12:50:16.012Z,8.30
2019-03-24T12:52:44.559Z,8.40
2019-03-24T12:55:13.063Z,8.30
2019-03-24T12:57:44.037Z,8.10
2019-03-24T13:00:12.147Z,7.90
2019-03-24T13:02:42.674Z,7.90
2019-03-24T13:05:11.255Z,7.70
2019-03-24T13:07:39.840Z,7.80
2019-03-24T13:10:08.411Z,7.70
2019-03-24T13:12:37.030Z,7.60
2019-03-24T13:15:07.351Z,7.40
2019-03-24T13:17:35.933Z,7.20
2019-03-24T13:20:06.180Z,7.30
2019-03-24T13:22:35.463Z,7.30
2019-03-24T13:25:06.180Z,7.50
2019-03-24T13:27:34.765Z,7.40
2019-03-24T13:30:04.780Z,7.50
2019-03-24T13:32:33.361Z,7.50
2019-03-24T13:35:01.940Z,7.70
2019-03-24T13:37:30.420Z,7.50
2019-03-24T13:40:00.019Z,7.70
2019-03-24T13:42:28.583Z,7.60
2019-03-24T13:44:58.828Z,7.60
2019-03-24T13:47:27.407Z,7.70
2019-03-24T13:49:55.888Z,7.80
2019-03-24T13:52:25.347Z,7.90
2019-03-24T13:54:53.941Z,8.00
2019-03-24T13:57:22.431Z,7.80
2019-03-24T13:59:52.165Z,7.70
2019-03-24T14:02:20.663Z,7.70
2019-03-24T14:04:49.091Z,7.70
2019-03-24T14:07:17.565Z,7.80
2019-03-24T14:09:46.044Z,7.70
2019-03-24T14:12:14.553Z,7.80
2019-03-24T14:14:42.942Z,7.80
2019-03-24T14:17:11.511Z,7.70
2019-03-24T14:19:39.955Z,7.80
2019-03-24T14:22:08.472Z,7.90
2019-03-24T14:24:36.922Z,7.90
2019-03-24T14:27:05.508Z,7.90
2019-03-24T14:29:34.009Z,8.00
2019-03-24T14:32:02.556Z,8.00
2019-03-24T14:34:31.978Z,8.00
2019-03-24T14:37:00.571Z,8.00
2019-03-24T14:39:29.049Z,8.00
2019-03-24T14:41:57.602Z,8.10
2019-03-24T14:44:26.114Z,7.90
2019-03-24T14:46:54.559Z,7.70
2019-03-24T14:49:23.038Z,7.80
2019-03-24T14:51:51.552Z,7.80
2019-03-24T14:54:21.851Z,7.80
2019-03-24T14:56:50.245Z,7.70
2019-03-24T14:59:18.929Z,7.60
2019-03-24T15:01:47.399Z,7.70
2019-03-24T15:04:15.993Z,7.80
2019-03-24T15:06:44.387Z,7.80
2019-03-24T15:09:12.844Z,7.80
2019-03-24T15:11:41.309Z,7.80
2019-03-24T15:14:09.771Z,8.00
2019-03-24T15:16:38.250Z,8.20
2019-03-24T15:19:06.762Z,8.30
2019-03-24T15:21:35.263Z,8.50
2019-03-24T15:24:03.791Z,8.70
2019-03-24T15:26:34.056Z,8.60
2019-03-24T15:29:04.044Z,8.70
2019-03-24T15:31:32.535Z,8.70
2019-03-24T15:34:00.931Z,9.00
2019-03-24T15:36:29.359Z,9.10
2019-03-24T15:38:57.855Z,9.10
2019-03-24T15:41:28.199Z,9.20
2019-03-24T15:43:56.568Z,9.10
2019-03-24T15:46:25.038Z,9.10
2019-03-24T15:48:53.531Z,9.20
2019-03-24T15:51:22.014Z,9.30
2019-03-24T15:53:50.458Z,9.30
2019-03-24T15:56:18.887Z,9.20
2019-03-24T15:58:47.411Z,9.00
2019-03-24T16:01:15.923Z,8.40
2019-03-24T16:03:44.399Z,8.20
2019-03-24T16:06:14.869Z,8.00
2019-03-24T16:08:43.407Z,7.90
2019-03-24T16:11:11.885Z,7.70
2019-03-24T16:13:42.281Z,7.60
2019-03-24T16:16:11.722Z,7.40
2019-03-24T16:18:40.290Z,7.20
2019-03-24T16:21:08.741Z,7.10
2019-03-24T16:23:38.141Z,7.00
2019-03-24T16:26:06.622Z,6.80
2019-03-24T16:28:35.127Z,6.70
2019-03-24T16:31:04.963Z,6.70
2019-03-24T16:33:33.547Z,6.50
2019-03-24T16:36:03.024Z,6.40
2019-03-24T16:38:31.570Z,6.40
2019-03-24T16:41:00.084Z,6.20
2019-03-24T16:43:28.635Z,6.10
2019-03-24T16:45:57.068Z,6.00
2019-03-24T16:48:36.221Z,5.90
2019-03-24T16:50:55.780Z,5.90
2019-03-24T16:53:24.322Z,5.80
2019-03-24T16:55:52.724Z,5.80
2019-03-24T16:58:21.156Z,5.90
2019-03-24T17:00:49.734Z,6.00
2019-03-24T17:03:18.211Z,6.00
2019-03-24T17:05:46.819Z,5.90
2019-03-24T17:08:15.275Z,5.80
2019-03-24T17:10:43.774Z,5.90
2019-03-24T17:13:12.255Z,5.90
2019-03-24T17:15:40.732Z,5.80
2019-03-24T17:18:11.061Z,5.90
2019-03-24T17:20:39.639Z,5.80
2019-03-24T17:23:08.047Z,5.80
2019-03-24T17:25:36.568Z,5.80
2019-03-24T17:28:04.995Z,5.80
2019-03-24T17:30:33.529Z,5.80
2019-03-24T17:33:02.004Z,5.70
2019-03-24T17:35:31.713Z,5.70
2019-03-24T17:38:00.124Z,5.60
2019-03-24T17:40:30.522Z,5.60
2019-03-24T17:42:58.990Z,5.50
2019-03-24T17:45:27.576Z,5.40
2019-03-24T17:47:56.019Z,5.40
2019-03-24T17:50:24.590Z,5.40
2019-03-24T17:52:53.140Z,5.20
2019-03-24T17:55:27.642Z,5.10
2019-03-24T17:57:51.737Z,5.00
2019-03-24T18:00:24.159Z,4.90
2019-03-24T18:02:52.659Z,4.90
2019-03-24T18:05:21.240Z,4.90
2019-03-24T18:07:49.663Z,4.70
2019-03-24T18:10:18.227Z,4.60
2019-03-24T18:12:52.804Z,4.60
2019-03-24T18:15:21.023Z,4.60
2019-03-24T18:17:49.500Z,4.50
2019-03-24T18:20:29.651Z,4.50
2019-03-24T18:22:58.517Z,4.60
2019-03-24T18:25:26.960Z,4.50
2019-03-24T18:27:55.497Z,4.40
2019-03-24T18:30:23.978Z,4.40
2019-03-24T18:32:52.457Z,4.30
2019-03-24T18:35:20.916Z,4.30
2019-03-24T18:37:51.751Z,4.30
2019-03-24T18:40:21.655Z,4.30
2019-03-24T18:42:50.253Z,4.10
2019-03-24T18:45:18.719Z,4.00
2019-03-24T18:47:47.223Z,3.90
2019-03-24T18:50:16.125Z,3.80
2019-03-24T18:52:44.661Z,3.80
2019-03-24T18:55:13.580Z,3.80
2019-03-24T18:57:42.168Z,3.80
2019-03-24T19:00:11.936Z,3.80
2019-03-24T19:02:40.502Z,3.80
2019-03-24T19:05:09.029Z,3.80
2019-03-24T19:07:37.614Z,3.80
2019-03-24T19:10:10.278Z,3.70
2019-03-24T19:12:38.710Z,3.70
2019-03-24T19:15:08.039Z,3.70
2019-03-24T19:17:36.956Z,3.60
2019-03-24T19:20:07.099Z,3.60
2019-03-24T19:22:35.665Z,3.50
2019-03-24T19:25:05.940Z,3.40
2019-03-24T19:27:34.454Z,3.40
2019-03-24T19:30:03.091Z,3.30
2019-03-24T19:32:31.519Z,3.30
2019-03-24T19:35:00.024Z,3.30
2019-03-24T19:37:30.112Z,3.20
2019-03-24T19:39:58.525Z,3.20
2019-03-24T19:42:27.070Z,3.20
2019-03-24T19:44:55.622Z,3.10
2019-03-24T19:47:24.100Z,3.10
2019-03-24T19:49:52.683Z,3.10
2019-03-24T19:52:22.953Z,3.10
2019-03-24T19:54:51.412Z,3.10
2019-03-24T19:57:21.584Z,3.10
2019-03-24T19:59:50.060Z,3.20
2019-03-24T20:02:18.689Z,3.10
2019-03-24T20:04:47.272Z,3.10
2019-03-24T20:07:15.711Z,3.10
2019-03-24T20:09:44.307Z,3.10
2019-03-24T20:12:15.838Z,3.10
2019-03-24T20:14:43.030Z,3.10
2019-03-24T20:17:11.611Z,3.00
2019-03-24T20:19:40.193Z,3.00
2019-03-24T20:22:08.643Z,3.00
2019-03-24T20:24:37.330Z,3.00
2019-03-24T20:27:07.799Z,2.90
2019-03-24T20:29:36.331Z,2.90
2019-03-24T20:32:04.942Z,2.90
2019-03-24T20:34:33.339Z,2.90
2019-03-24T20:37:01.901Z,2.90
2019-03-24T20:39:30.383Z,2.80
2019-03-24T20:41:58.828Z,2.80
2019-03-24T20:44:27.251Z,2.80
2019-03-24T20:46:55.817Z,2.80
2019-03-24T20:49:24.268Z,2.80
2019-03-24T20:51:52.876Z,2.80
2019-03-24T20:54:23.599Z,2.80
2019-03-24T20:56:52.055Z,2.80
2019-03-24T20:59:20.487Z,2.80
2019-03-24T21:01:48.984Z,2.70
2019-03-24T21:04:20.108Z,2.70
2019-03-24T21:06:47.715Z,2.70
2019-03-24T21:09:17.909Z,2.60
2019-03-24T21:11:46.412Z,2.60
2019-03-24T21:14:14.996Z,2.60
2019-03-24T21:16:43.605Z,2.60
2019-03-24T21:19:12.007Z,2.60
2019-03-24T21:21:40.567Z,2.50
2019-03-24T21:24:21.390Z,2.40
2019-03-24T21:26:51.900Z,2.40
2019-03-24T21:29:20.446Z,2.40
2019-03-24T21:31:48.992Z,2.30
2019-03-24T21:34:17.499Z,2.20
2019-03-24T21:36:45.895Z,2.20
2019-03-24T21:39:14.460Z,2.20
2019-03-24T21:41:43.016Z,2.20
2019-03-24T21:44:11.433Z,2.00
2019-03-24T21:46:41.093Z,2.00
2019-03-24T21:49:10.460Z,2.00
2019-03-24T21:51:39.950Z,1.90
2019-03-24T21:54:08.391Z,1.90
2019-03-24T21:56:36.811Z,1.90
2019-03-24T21:59:05.359Z,1.80
2019-03-24T22:01:33.843Z,1.90
2019-03-24T22:04:02.288Z,1.80
2019-03-24T22:06:32.543Z,1.80
2019-03-24T22:09:00.995Z,1.90
2019-03-24T22:11:29.463Z,1.80
2019-03-24T22:13:58.076Z,1.80
2019-03-24T22:16:26.471Z,1.80
2019-03-24T22:18:54.965Z,1.80
2019-03-24T22:21:25.674Z,1.80
2019-03-24T22:23:54.214Z,1.80
2019-03-24T22:26:22.715Z,1.90
2019-03-24T22:28:51.148Z,1.90
2019-03-24T22:31:19.583Z,1.90
2019-03-24T22:33:48.161Z,1.80
2019-03-24T22:36:16.741Z,1.90
2019-03-24T22:38:45.322Z,1.90
2019-03-24T22:41:13.770Z,1.80
2019-03-24T22:43:42.354Z,1.90
2019-03-24T22:46:10.861Z,1.90
2019-03-24T22:48:40.581Z,1.90
2019-03-24T22:51:08.944Z,1.90
2019-03-24T22:53:37.527Z,1.90
2019-03-24T22:56:06.008Z,1.90
2019-03-24T22:58:34.402Z,1.90
2019-03-24T23:01:02.965Z,1.90
2019-03-24T23:03:31.426Z,1.90
2019-03-24T23:05:59.858Z,1.90
2019-03-24T23:08:28.370Z,1.80
2019-03-24T23:10:56.852Z,1.80
2019-03-24T23:13:25.436Z,1.80
2019-03-24T23:15:53.941Z,1.80
2019-03-24T23:18:22.421Z,1.80
2019-03-24T23:20:51.003Z,1.70
2019-03-24T23:23:19.553Z,1.70
2019-03-24T23:25:48.060Z,1.70
2019-03-24T23:28:16.514Z,1.60
2019-03-24T23:30:45.019Z,1.60
2019-03-24T23:33:13.469Z,1.60
2019-03-24T23:35:43.938Z,1.50
2019-03-24T23:38:12.365Z,1.50
2019-03-24T23:40:42.194Z,1.50
2019-03-24T23:43:10.689Z,1.40
2019-03-24T23:45:39.174Z,1.40
2019-03-24T23:48:09.361Z,1.30
2019-03-24T23:50:37.746Z,1.30
2019-03-24T23:53:06.215Z,1.20
2019-03-24T23:55:34.691Z,1.20
2019-03-24T23:58:03.122Z,1.20
